sensor_id;sensor_type;location;lat;lon;timestamp;P1;durP1;ratioP1;P2;durP2;ratioP2
9976;SDS011;5029;47.378;11.776;2022-10-17T00:03:40;6.73;;;3.97;;
9976;SDS011;5029;47.378;11.776;2022-10-17T00:08:45;6.30;;;4.20;;
9976;SDS011;5029;47.378;11.776;2022-10-17T00:13:50;4.63;;;4.03;;
9976;SDS011;5029;47.378;11.776;2022-10-17T00:18:55;4.30;;;3.90;;
9976;SDS011;5029;47.378;11.776;2022-10-17T00:24:01;6.07;;;4.10;;
9976;SDS011;5029;47.378;11.776;2022-10-17T00:29:04;7.93;;;4.23;;
9976;SDS011;5029;47.378;11.776;2022-10-17T00:34:08;4.97;;;4.17;;
9976;SDS011;5029;47.378;11.776;2022-10-17T00:39:13;5.50;;;4.30;;
9976;SDS011;5029;47.378;11.776;2022-10-17T00:49:58;4.60;;;3.80;;
9976;SDS011;5029;47.378;11.776;2022-10-17T00:55:05;5.97;;;4.53;;
9976;SDS011;5029;47.378;11.776;2022-10-17T01:00:13;7.97;;;5.27;;
9976;SDS011;5029;47.378;11.776;2022-10-17T01:05:18;13.17;;;4.47;;
9976;SDS011;5029;47.378;11.776;2022-10-17T01:10:25;5.10;;;4.37;;
9976;SDS011;5029;47.378;11.776;2022-10-17T01:15:37;5.67;;;4.70;;
9976;SDS011;5029;47.378;11.776;2022-10-17T01:21:11;7.30;;;4.97;;
9976;SDS011;5029;47.378;11.776;2022-10-17T01:26:31;6.10;;;4.40;;
9976;SDS011;5029;47.378;11.776;2022-10-17T01:31:50;5.07;;;4.30;;
9976;SDS011;5029;47.378;11.776;2022-10-17T01:37:01;5.17;;;4.23;;
9976;SDS011;5029;47.378;11.776;2022-10-17T01:42:10;4.43;;;4.03;;
9976;SDS011;5029;47.378;11.776;2022-10-17T01:47:20;7.53;;;4.30;;
9976;SDS011;5029;47.378;11.776;2022-10-17T01:52:30;4.90;;;4.50;;
9976;SDS011;5029;47.378;11.776;2022-10-17T01:57:39;5.00;;;4.33;;
9976;SDS011;5029;47.378;11.776;2022-10-17T02:02:50;5.77;;;5.17;;
9976;SDS011;5029;47.378;11.776;2022-10-17T02:07:58;6.07;;;4.60;;
9976;SDS011;5029;47.378;11.776;2022-10-17T02:13:03;6.93;;;4.70;;
9976;SDS011;5029;47.378;11.776;2022-10-17T02:18:17;7.53;;;4.60;;
9976;SDS011;5029;47.378;11.776;2022-10-17T02:23:34;7.53;;;4.97;;
9976;SDS011;5029;47.378;11.776;2022-10-17T02:28:46;5.93;;;4.53;;
9976;SDS011;5029;47.378;11.776;2022-10-17T02:34:01;5.20;;;4.67;;
9976;SDS011;5029;47.378;11.776;2022-10-17T02:39:07;5.10;;;4.27;;
9976;SDS011;5029;47.378;11.776;2022-10-17T02:44:12;4.37;;;3.97;;
9976;SDS011;5029;47.378;11.776;2022-10-17T02:49:19;7.43;;;4.00;;
9976;SDS011;5029;47.378;11.776;2022-10-17T02:54:27;5.07;;;4.10;;
9976;SDS011;5029;47.378;11.776;2022-10-17T02:59:35;5.90;;;4.30;;
9976;SDS011;5029;47.378;11.776;2022-10-17T03:04:44;5.23;;;4.53;;
9976;SDS011;5029;47.378;11.776;2022-10-17T03:09:48;6.77;;;4.40;;
9976;SDS011;5029;47.378;11.776;2022-10-17T03:14:51;7.13;;;4.83;;
9976;SDS011;5029;47.378;11.776;2022-10-17T03:19:56;5.67;;;4.30;;
9976;SDS011;5029;47.378;11.776;2022-10-17T03:25:00;5.97;;;4.37;;
9976;SDS011;5029;47.378;11.776;2022-10-17T03:30:04;7.63;;;4.10;;
9976;SDS011;5029;47.378;11.776;2022-10-17T04:00:58;6.30;;;4.10;;
9976;SDS011;5029;47.378;11.776;2022-10-17T04:59:03;5.60;;;4.67;;
9976;SDS011;5029;47.378;11.776;2022-10-17T05:04:08;8.00;;;4.60;;
9976;SDS011;5029;47.378;11.776;2022-10-17T05:09:12;5.50;;;4.57;;
9976;SDS011;5029;47.378;11.776;2022-10-17T05:14:15;5.50;;;4.43;;
9976;SDS011;5029;47.378;11.776;2022-10-17T05:19:20;5.73;;;4.63;;
9976;SDS011;5029;47.378;11.776;2022-10-17T05:24:24;5.97;;;5.00;;
9976;SDS011;5029;47.378;11.776;2022-10-17T05:29:27;6.43;;;3.97;;
9976;SDS011;5029;47.378;11.776;2022-10-17T05:34:33;5.07;;;4.20;;
9976;SDS011;5029;47.378;11.776;2022-10-17T05:39:37;4.97;;;4.57;;
9976;SDS011;5029;47.378;11.776;2022-10-17T05:44:41;4.80;;;4.40;;
9976;SDS011;5029;47.378;11.776;2022-10-17T05:49:46;5.30;;;4.40;;
9976;SDS011;5029;47.378;11.776;2022-10-17T05:54:52;6.87;;;4.87;;
9976;SDS011;5029;47.378;11.776;2022-10-17T05:59:56;6.67;;;4.43;;
9976;SDS011;5029;47.378;11.776;2022-10-17T06:05:02;5.60;;;5.10;;
9976;SDS011;5029;47.378;11.776;2022-10-17T06:10:07;6.23;;;5.60;;
9976;SDS011;5029;47.378;11.776;2022-10-17T06:15:12;6.17;;;5.60;;
9976;SDS011;5029;47.378;11.776;2022-10-17T06:20:17;6.50;;;5.90;;
9976;SDS011;5029;47.378;11.776;2022-10-17T06:25:21;7.57;;;5.67;;
9976;SDS011;5029;47.378;11.776;2022-10-17T06:30:24;5.90;;;5.30;;
9976;SDS011;5029;47.378;11.776;2022-10-17T06:35:29;9.57;;;5.23;;
9976;SDS011;5029;47.378;11.776;2022-10-17T06:40:33;6.23;;;5.03;;
9976;SDS011;5029;47.378;11.776;2022-10-17T06:45:37;5.40;;;4.90;;
9976;SDS011;5029;47.378;11.776;2022-10-17T06:50:42;5.33;;;4.83;;
9976;SDS011;5029;47.378;11.776;2022-10-17T06:55:49;7.63;;;5.10;;
9976;SDS011;5029;47.378;11.776;2022-10-17T07:00:57;5.20;;;4.70;;
9976;SDS011;5029;47.378;11.776;2022-10-17T07:06:03;7.10;;;5.10;;
9976;SDS011;5029;47.378;11.776;2022-10-17T07:11:08;6.17;;;4.60;;
9976;SDS011;5029;47.378;11.776;2022-10-17T07:16:13;4.73;;;4.33;;
9976;SDS011;5029;47.378;11.776;2022-10-17T07:21:19;6.47;;;4.33;;
9976;SDS011;5029;47.378;11.776;2022-10-17T07:26:22;5.80;;;4.73;;
9976;SDS011;5029;47.378;11.776;2022-10-17T07:31:26;4.87;;;4.23;;
9976;SDS011;5029;47.378;11.776;2022-10-17T07:36:31;5.80;;;4.43;;
9976;SDS011;5029;47.378;11.776;2022-10-17T07:41:34;5.90;;;4.60;;
9976;SDS011;5029;47.378;11.776;2022-10-17T07:46:38;5.53;;;3.73;;
9976;SDS011;5029;47.378;11.776;2022-10-17T07:51:43;5.73;;;4.63;;
9976;SDS011;5029;47.378;11.776;2022-10-17T07:56:46;6.43;;;4.63;;
9976;SDS011;5029;47.378;11.776;2022-10-17T08:01:53;6.73;;;4.40;;
9976;SDS011;5029;47.378;11.776;2022-10-17T08:06:58;4.83;;;4.43;;
9976;SDS011;5029;47.378;11.776;2022-10-17T08:12:22;5.40;;;4.10;;
9976;SDS011;5029;47.378;11.776;2022-10-17T08:17:26;4.20;;;3.80;;
9976;SDS011;5029;47.378;11.776;2022-10-17T08:22:31;5.13;;;4.30;;
9976;SDS011;5029;47.378;11.776;2022-10-17T08:27:35;6.93;;;4.60;;
9976;SDS011;5029;47.378;11.776;2022-10-17T08:32:38;4.23;;;3.83;;
9976;SDS011;5029;47.378;11.776;2022-10-17T08:37:43;4.60;;;4.00;;
9976;SDS011;5029;47.378;11.776;2022-10-17T08:42:53;5.60;;;3.87;;
9976;SDS011;5029;47.378;11.776;2022-10-17T08:48:09;4.23;;;3.83;;
9976;SDS011;5029;47.378;11.776;2022-10-17T08:53:18;3.83;;;3.53;;
9976;SDS011;5029;47.378;11.776;2022-10-17T08:58:26;4.90;;;4.40;;
9976;SDS011;5029;47.378;11.776;2022-10-17T09:09:06;5.17;;;4.10;;
9976;SDS011;5029;47.378;11.776;2022-10-17T09:14:21;3.80;;;3.50;;
9976;SDS011;5029;47.378;11.776;2022-10-17T09:19:40;4.87;;;3.30;;
9976;SDS011;5029;47.378;11.776;2022-10-17T09:24:50;4.13;;;3.40;;
9976;SDS011;5029;47.378;11.776;2022-10-17T09:30:11;3.40;;;3.10;;
9976;SDS011;5029;47.378;11.776;2022-10-17T09:35:45;3.83;;;3.40;;
9976;SDS011;5029;47.378;11.776;2022-10-17T09:40:53;3.30;;;3.00;;
9976;SDS011;5029;47.378;11.776;2022-10-17T09:45:58;3.40;;;3.10;;
9976;SDS011;5029;47.378;11.776;2022-10-17T09:51:07;3.30;;;3.00;;
9976;SDS011;5029;47.378;11.776;2022-10-17T09:56:27;4.93;;;3.03;;
9976;SDS011;5029;47.378;11.776;2022-10-17T10:01:31;4.73;;;3.00;;
9976;SDS011;5029;47.378;11.776;2022-10-17T10:06:35;4.00;;;2.70;;
9976;SDS011;5029;47.378;11.776;2022-10-17T10:11:47;3.00;;;2.80;;
9976;SDS011;5029;47.378;11.776;2022-10-17T10:16:53;3.20;;;2.97;;
9976;SDS011;5029;47.378;11.776;2022-10-17T10:21:58;3.03;;;2.83;;
9976;SDS011;5029;47.378;11.776;2022-10-17T10:27:11;4.53;;;3.20;;
9976;SDS011;5029;47.378;11.776;2022-10-17T10:32:21;4.10;;;3.13;;
9976;SDS011;5029;47.378;11.776;2022-10-17T10:37:28;3.30;;;3.00;;
9976;SDS011;5029;47.378;11.776;2022-10-17T10:42:38;4.93;;;3.03;;
9976;SDS011;5029;47.378;11.776;2022-10-17T10:47:49;3.30;;;3.10;;
9976;SDS011;5029;47.378;11.776;2022-10-17T10:52:56;3.03;;;2.80;;
9976;SDS011;5029;47.378;11.776;2022-10-17T10:58:18;3.67;;;3.00;;
9976;SDS011;5029;47.378;11.776;2022-10-17T11:03:30;3.60;;;2.43;;
9976;SDS011;5029;47.378;11.776;2022-10-17T11:08:39;5.60;;;2.70;;
9976;SDS011;5029;47.378;11.776;2022-10-17T11:13:49;4.50;;;2.63;;
9976;SDS011;5029;47.378;11.776;2022-10-17T11:18:57;4.33;;;2.70;;
9976;SDS011;5029;47.378;11.776;2022-10-17T11:24:09;5.37;;;2.73;;
9976;SDS011;5029;47.378;11.776;2022-10-17T11:29:22;4.27;;;2.97;;
9976;SDS011;5029;47.378;11.776;2022-10-17T11:34:30;3.37;;;3.07;;
9976;SDS011;5029;47.378;11.776;2022-10-17T11:39:41;4.40;;;2.80;;
9976;SDS011;5029;47.378;11.776;2022-10-17T11:44:51;3.93;;;3.10;;
9976;SDS011;5029;47.378;11.776;2022-10-17T11:50:02;3.57;;;2.90;;
9976;SDS011;5029;47.378;11.776;2022-10-17T11:55:33;4.57;;;2.60;;
9976;SDS011;5029;47.378;11.776;2022-10-17T12:00:46;5.17;;;3.13;;
9976;SDS011;5029;47.378;11.776;2022-10-17T12:06:01;3.07;;;2.57;;
9976;SDS011;5029;47.378;11.776;2022-10-17T12:11:19;3.00;;;2.70;;
9976;SDS011;5029;47.378;11.776;2022-10-17T12:16:37;4.07;;;3.00;;
9976;SDS011;5029;47.378;11.776;2022-10-17T12:21:55;6.43;;;3.10;;
9976;SDS011;5029;47.378;11.776;2022-10-17T12:32:44;3.27;;;2.40;;
9976;SDS011;5029;47.378;11.776;2022-10-17T12:43:37;3.13;;;2.60;;
9976;SDS011;5029;47.378;11.776;2022-10-17T12:48:59;3.63;;;2.67;;
9976;SDS011;5029;47.378;11.776;2022-10-17T12:54:20;3.00;;;2.70;;
9976;SDS011;5029;47.378;11.776;2022-10-17T12:59:26;2.60;;;2.40;;
9976;SDS011;5029;47.378;11.776;2022-10-17T13:04:32;3.80;;;3.00;;
9976;SDS011;5029;47.378;11.776;2022-10-17T13:09:41;4.93;;;2.60;;
9976;SDS011;5029;47.378;11.776;2022-10-17T13:14:46;3.43;;;2.40;;
9976;SDS011;5029;47.378;11.776;2022-10-17T13:19:53;3.43;;;2.53;;
9976;SDS011;5029;47.378;11.776;2022-10-17T13:25:05;4.93;;;2.70;;
9976;SDS011;5029;47.378;11.776;2022-10-17T13:30:21;5.40;;;2.20;;
9976;SDS011;5029;47.378;11.776;2022-10-17T13:35:34;2.70;;;2.50;;
9976;SDS011;5029;47.378;11.776;2022-10-17T13:41:00;5.17;;;2.60;;
9976;SDS011;5029;47.378;11.776;2022-10-17T13:46:25;3.30;;;2.33;;
9976;SDS011;5029;47.378;11.776;2022-10-17T13:51:48;4.53;;;2.90;;
9976;SDS011;5029;47.378;11.776;2022-10-17T13:57:15;3.37;;;2.50;;
9976;SDS011;5029;47.378;11.776;2022-10-17T15:35:32;5.70;;;2.77;;
9976;SDS011;5029;47.378;11.776;2022-10-17T15:40:39;3.77;;;2.50;;
9976;SDS011;5029;47.378;11.776;2022-10-17T15:51:14;3.37;;;2.40;;
9976;SDS011;5029;47.378;11.776;2022-10-17T15:56:28;3.50;;;2.73;;
9976;SDS011;5029;47.378;11.776;2022-10-17T16:01:42;4.07;;;2.83;;
9976;SDS011;5029;47.378;11.776;2022-10-17T16:07:14;4.33;;;2.60;;
9976;SDS011;5029;47.378;11.776;2022-10-17T16:18:07;2.90;;;2.70;;
9976;SDS011;5029;47.378;11.776;2022-10-17T16:23:22;5.43;;;3.53;;
9976;SDS011;5029;47.378;11.776;2022-10-17T16:28:26;2.90;;;2.60;;
9976;SDS011;5029;47.378;11.776;2022-10-17T16:33:36;3.07;;;2.80;;
9976;SDS011;5029;47.378;11.776;2022-10-17T16:38:47;2.50;;;2.30;;
9976;SDS011;5029;47.378;11.776;2022-10-17T16:44:06;4.00;;;2.87;;
9976;SDS011;5029;47.378;11.776;2022-10-17T16:49:35;5.00;;;2.67;;
9976;SDS011;5029;47.378;11.776;2022-10-17T17:54:28;5.87;;;4.03;;
9976;SDS011;5029;47.378;11.776;2022-10-17T17:59:41;5.87;;;3.50;;
9976;SDS011;5029;47.378;11.776;2022-10-17T18:04:47;5.93;;;3.20;;
9976;SDS011;5029;47.378;11.776;2022-10-17T18:09:52;4.50;;;3.33;;
9976;SDS011;5029;47.378;11.776;2022-10-17T19:22:22;3.47;;;3.17;;
9976;SDS011;5029;47.378;11.776;2022-10-17T19:27:27;3.90;;;2.70;;
9976;SDS011;5029;47.378;11.776;2022-10-17T19:32:31;3.90;;;3.37;;
9976;SDS011;5029;47.378;11.776;2022-10-17T19:37:37;4.20;;;3.30;;
9976;SDS011;5029;47.378;11.776;2022-10-17T19:42:41;5.43;;;3.60;;
9976;SDS011;5029;47.378;11.776;2022-10-17T19:47:45;3.87;;;3.50;;
9976;SDS011;5029;47.378;11.776;2022-10-17T19:52:51;6.63;;;3.23;;
9976;SDS011;5029;47.378;11.776;2022-10-17T19:57:56;4.10;;;3.30;;
9976;SDS011;5029;47.378;11.776;2022-10-17T20:03:03;7.53;;;3.27;;
9976;SDS011;5029;47.378;11.776;2022-10-17T20:08:09;3.13;;;2.60;;
9976;SDS011;5029;47.378;11.776;2022-10-17T20:13:13;4.33;;;2.73;;
9976;SDS011;5029;47.378;11.776;2022-10-17T20:18:17;3.13;;;2.83;;
9976;SDS011;5029;47.378;11.776;2022-10-17T20:23:23;6.47;;;2.60;;
9976;SDS011;5029;47.378;11.776;2022-10-17T20:28:26;4.30;;;2.50;;
9976;SDS011;5029;47.378;11.776;2022-10-17T20:33:30;4.83;;;2.60;;
9976;SDS011;5029;47.378;11.776;2022-10-17T20:38:35;3.80;;;2.80;;
9976;SDS011;5029;47.378;11.776;2022-10-17T20:43:39;3.60;;;2.97;;
9976;SDS011;5029;47.378;11.776;2022-10-17T20:48:42;5.23;;;3.20;;
9976;SDS011;5029;47.378;11.776;2022-10-17T20:53:47;6.10;;;3.67;;
9976;SDS011;5029;47.378;11.776;2022-10-17T20:58:52;8.03;;;3.70;;
9976;SDS011;5029;47.378;11.776;2022-10-17T21:03:56;6.60;;;4.13;;
9976;SDS011;5029;47.378;11.776;2022-10-17T21:09:21;5.97;;;3.37;;
9976;SDS011;5029;47.378;11.776;2022-10-17T21:14:25;6.73;;;3.60;;
9976;SDS011;5029;47.378;11.776;2022-10-17T21:19:28;5.03;;;3.70;;
9976;SDS011;5029;47.378;11.776;2022-10-17T21:24:33;6.13;;;4.50;;
9976;SDS011;5029;47.378;11.776;2022-10-17T21:29:37;5.30;;;4.10;;
9976;SDS011;5029;47.378;11.776;2022-10-17T21:34:40;5.87;;;3.40;;
9976;SDS011;5029;47.378;11.776;2022-10-17T21:39:45;6.73;;;3.30;;
9976;SDS011;5029;47.378;11.776;2022-10-17T21:44:49;5.20;;;3.77;;
9976;SDS011;5029;47.378;11.776;2022-10-17T21:49:52;3.40;;;3.10;;
9976;SDS011;5029;47.378;11.776;2022-10-17T21:54:58;4.53;;;2.93;;
9976;SDS011;5029;47.378;11.776;2022-10-17T22:00:02;4.77;;;2.70;;
9976;SDS011;5029;47.378;11.776;2022-10-17T22:05:06;4.53;;;3.20;;
9976;SDS011;5029;47.378;11.776;2022-10-17T22:10:12;6.63;;;4.00;;
9976;SDS011;5029;47.378;11.776;2022-10-17T22:15:15;4.03;;;3.60;;
9976;SDS011;5029;47.378;11.776;2022-10-17T22:20:19;6.63;;;3.63;;
9976;SDS011;5029;47.378;11.776;2022-10-17T22:25:24;4.53;;;3.13;;
9976;SDS011;5029;47.378;11.776;2022-10-17T22:30:27;4.60;;;2.80;;
9976;SDS011;5029;47.378;11.776;2022-10-17T22:35:31;4.07;;;3.53;;
9976;SDS011;5029;47.378;11.776;2022-10-17T22:40:36;6.10;;;4.20;;
9976;SDS011;5029;47.378;11.776;2022-10-17T22:45:39;6.53;;;4.13;;
9976;SDS011;5029;47.378;11.776;2022-10-17T22:50:43;9.23;;;4.63;;
9976;SDS011;5029;47.378;11.776;2022-10-17T22:55:50;6.40;;;4.30;;
9976;SDS011;5029;47.378;11.776;2022-10-17T23:00:54;6.00;;;3.63;;
9976;SDS011;5029;47.378;11.776;2022-10-17T23:05:58;5.87;;;4.00;;
9976;SDS011;5029;47.378;11.776;2022-10-17T23:11:03;5.20;;;4.07;;
9976;SDS011;5029;47.378;11.776;2022-10-17T23:16:07;7.33;;;4.13;;
9976;SDS011;5029;47.378;11.776;2022-10-17T23:21:11;4.23;;;3.80;;
9976;SDS011;5029;47.378;11.776;2022-10-17T23:26:16;7.63;;;4.30;;
9976;SDS011;5029;47.378;11.776;2022-10-17T23:31:19;4.47;;;4.07;;
9976;SDS011;5029;47.378;11.776;2022-10-17T23:36:23;5.17;;;4.07;;
9976;SDS011;5029;47.378;11.776;2022-10-17T23:41:28;7.17;;;4.07;;
9976;SDS011;5029;47.378;11.776;2022-10-17T23:46:32;5.97;;;4.07;;
9976;SDS011;5029;47.378;11.776;2022-10-17T23:51:35;5.97;;;3.73;;
9976;SDS011;5029;47.378;11.776;2022-10-17T23:56:40;7.37;;;4.30;;
